TUI415 UNKL-UNNT
Flight info
| Callsign | TUI415 |
|---|---|
| Flight time | 0h 59m |
| Altitude | 32000 |
| Route | APRUS2F APRUS B926 NATIR NATIR1K |
| Aircraft | B738/M-SDE2E3FGHIRWXY/LB1 |
Departure
| Time | 2026-05-04 12:57 |
|---|---|
| Airport | Krasnoyarsk International Airport (UNKL) |
Arrival
| Time | 2026-05-04 13:56 |
|---|---|
| Airport | Novosibirsk Tolmachevo Airport (UNNT) |
| Time | Latitude | Longitude | Altitude | Speed | Heading |
|---|---|---|---|---|---|
| 2026-05-04 12:14 | 56.17950 | 92.48538 | 947 ft | 0 kts | 22° |
| 2026-05-04 12:44 | 56.17944 | 92.48533 | 946 ft | 2 kts | 34° |
| 2026-05-04 12:44 | 56.17930 | 92.48518 | 946 ft | 2 kts | 18° |
| 2026-05-04 12:44 | 56.17914 | 92.48505 | 946 ft | 2 kts | 39° |
| 2026-05-04 12:44 | 56.17902 | 92.48483 | 945 ft | 2 kts | 53° |
| 2026-05-04 12:45 | 56.17894 | 92.48457 | 946 ft | 2 kts | 69° |
| 2026-05-04 12:45 | 56.17889 | 92.48428 | 946 ft | 2 kts | 84° |
| 2026-05-04 12:45 | 56.17890 | 92.48397 | 946 ft | 2 kts | 99° |
| 2026-05-04 12:45 | 56.17893 | 92.48377 | 947 ft | 0 kts | 110° |
| 2026-05-04 12:46 | 56.17895 | 92.48367 | 947 ft | 1 kts | 112° |
| 2026-05-04 12:46 | 56.17895 | 92.48366 | 947 ft | 0 kts | 112° |
| 2026-05-04 12:50 | 56.17894 | 92.48370 | 947 ft | 1 kts | 111° |
| 2026-05-04 12:51 | 56.17887 | 92.48399 | 947 ft | 4 kts | 115° |
| 2026-05-04 12:51 | 56.17830 | 92.48440 | 946 ft | 7 kts | 199° |
| 2026-05-04 12:51 | 56.17797 | 92.48416 | 947 ft | 6 kts | 201° |
| 2026-05-04 12:51 | 56.17724 | 92.48466 | 947 ft | 14 kts | 116° |
| 2026-05-04 12:52 | 56.17665 | 92.48704 | 946 ft | 23 kts | 112° |
| 2026-05-04 12:52 | 56.17590 | 92.49026 | 947 ft | 24 kts | 112° |
| 2026-05-04 12:52 | 56.17518 | 92.49324 | 947 ft | 23 kts | 113° |
| 2026-05-04 12:52 | 56.17451 | 92.49607 | 947 ft | 22 kts | 112° |
| 2026-05-04 12:53 | 56.17385 | 92.49882 | 947 ft | 21 kts | 112° |
| 2026-05-04 12:53 | 56.17321 | 92.50150 | 946 ft | 20 kts | 112° |
| 2026-05-04 12:53 | 56.17281 | 92.50319 | 947 ft | 20 kts | 112° |
| 2026-05-04 12:53 | 56.17221 | 92.50571 | 946 ft | 19 kts | 113° |
| 2026-05-04 12:54 | 56.17145 | 92.50890 | 946 ft | 20 kts | 112° |
| 2026-05-04 12:54 | 56.17102 | 92.51070 | 947 ft | 21 kts | 112° |
| 2026-05-04 12:54 | 56.17019 | 92.51421 | 946 ft | 20 kts | 112° |
| 2026-05-04 12:54 | 56.16959 | 92.51672 | 947 ft | 19 kts | 112° |
| 2026-05-04 12:55 | 56.16898 | 92.51911 | 947 ft | 17 kts | 122° |
| 2026-05-04 12:55 | 56.16795 | 92.52048 | 946 ft | 17 kts | 162° |
| 2026-05-04 12:55 | 56.16701 | 92.52066 | 946 ft | 7 kts | 182° |
| 2026-05-04 12:55 | 56.16660 | 92.52028 | 947 ft | 5 kts | 254° |
| 2026-05-04 12:56 | 56.16668 | 92.51951 | 946 ft | 5 kts | 289° |
| 2026-05-04 12:56 | 56.16682 | 92.51884 | 946 ft | 6 kts | 292° |
| 2026-05-04 12:56 | 56.16710 | 92.51766 | 946 ft | 33 kts | 292° |
| 2026-05-04 12:56 | 56.17056 | 92.50317 | 947 ft | 135 kts | 292° |
| 2026-05-04 12:57 | 56.17519 | 92.48329 | 1283 ft | 166 kts | 291° |
| 2026-05-04 12:57 | 56.17958 | 92.46398 | 2198 ft | 154 kts | 294° |
| 2026-05-04 12:57 | 56.18439 | 92.44471 | 2733 ft | 158 kts | 296° |
| 2026-05-04 12:57 | 56.18912 | 92.42487 | 3341 ft | 158 kts | 295° |
| 2026-05-04 12:58 | 56.19367 | 92.40531 | 3930 ft | 158 kts | 295° |
| 2026-05-04 12:58 | 56.19837 | 92.38550 | 4420 ft | 164 kts | 295° |
| 2026-05-04 12:58 | 56.20345 | 92.36415 | 4841 ft | 175 kts | 295° |
| 2026-05-04 12:58 | 56.20881 | 92.34162 | 5347 ft | 184 kts | 295° |
| 2026-05-04 12:59 | 56.21436 | 92.31826 | 5847 ft | 194 kts | 295° |
| 2026-05-04 12:59 | 56.21779 | 92.29179 | 6200 ft | 216 kts | 268° |
| 2026-05-04 12:59 | 56.21233 | 92.26206 | 6667 ft | 238 kts | 249° |
| 2026-05-04 12:59 | 56.20438 | 92.23244 | 7160 ft | 250 kts | 251° |
| 2026-05-04 13:00 | 56.19693 | 92.20077 | 7729 ft | 257 kts | 253° |
| 2026-05-04 13:00 | 56.18979 | 92.16761 | 8418 ft | 262 kts | 254° |
| 2026-05-04 13:00 | 56.18278 | 92.13450 | 9164 ft | 264 kts | 254° |
| 2026-05-04 13:00 | 56.17564 | 92.10103 | 9868 ft | 267 kts | 254° |
| 2026-05-04 13:01 | 56.16838 | 92.06722 | 10568 ft | 270 kts | 254° |
| 2026-05-04 13:01 | 56.16086 | 92.03250 | 11272 ft | 273 kts | 254° |
| 2026-05-04 13:01 | 56.15338 | 91.99790 | 11936 ft | 278 kts | 255° |
| 2026-05-04 13:01 | 56.14575 | 91.96262 | 12523 ft | 283 kts | 255° |
| 2026-05-04 13:02 | 56.13788 | 91.92630 | 12846 ft | 284 kts | 255° |
| 2026-05-04 13:02 | 56.13007 | 91.89047 | 13148 ft | 286 kts | 255° |
| 2026-05-04 13:02 | 56.12479 | 91.86623 | 13349 ft | 287 kts | 255° |
| 2026-05-04 13:02 | 56.11412 | 91.81716 | 13742 ft | 304 kts | 255° |
| 2026-05-04 13:03 | 56.10549 | 91.77730 | 14115 ft | 319 kts | 255° |
| 2026-05-04 13:03 | 56.09660 | 91.73650 | 14649 ft | 328 kts | 255° |
| 2026-05-04 13:03 | 56.08750 | 91.69505 | 15331 ft | 333 kts | 255° |
| 2026-05-04 13:03 | 56.07810 | 91.65241 | 15863 ft | 337 kts | 255° |
| 2026-05-04 13:04 | 56.06871 | 91.60992 | 16162 ft | 337 kts | 255° |
| 2026-05-04 13:04 | 56.05932 | 91.56767 | 16469 ft | 338 kts | 255° |
| 2026-05-04 13:04 | 56.04990 | 91.52510 | 16784 ft | 341 kts | 255° |
| 2026-05-04 13:04 | 56.04025 | 91.48163 | 17086 ft | 341 kts | 256° |
| 2026-05-04 13:05 | 56.03073 | 91.43877 | 17397 ft | 344 kts | 256° |
| 2026-05-04 13:05 | 56.02113 | 91.39557 | 17705 ft | 346 kts | 256° |
| 2026-05-04 13:05 | 56.01130 | 91.35156 | 18016 ft | 347 kts | 256° |
| 2026-05-04 13:05 | 56.00147 | 91.30750 | 18137 ft | 357 kts | 255° |
| 2026-05-04 13:06 | 55.99136 | 91.26287 | 18942 ft | 356 kts | 255° |
| 2026-05-04 13:06 | 55.98239 | 91.21823 | 19664 ft | 352 kts | 260° |
| 2026-05-04 13:06 | 55.97773 | 91.18749 | 20094 ft | 352 kts | 263° |
| 2026-05-04 13:06 | 55.97181 | 91.14046 | 20707 ft | 355 kts | 265° |
| 2026-05-04 13:07 | 55.96653 | 91.09356 | 21341 ft | 356 kts | 265° |
| 2026-05-04 13:07 | 55.95963 | 91.03101 | 22146 ft | 360 kts | 265° |
| 2026-05-04 13:07 | 55.95605 | 90.99909 | 22519 ft | 362 kts | 265° |
| 2026-05-04 13:07 | 55.94868 | 90.93482 | 23344 ft | 365 kts | 265° |
| 2026-05-04 13:08 | 55.94305 | 90.88662 | 23863 ft | 369 kts | 265° |
| 2026-05-04 13:08 | 55.93720 | 90.83704 | 24373 ft | 373 kts | 265° |
| 2026-05-04 13:08 | 55.93133 | 90.78777 | 24863 ft | 377 kts | 265° |
| 2026-05-04 13:08 | 55.92538 | 90.73798 | 25289 ft | 382 kts | 265° |
| 2026-05-04 13:09 | 55.91932 | 90.68767 | 25762 ft | 385 kts | 265° |
| 2026-05-04 13:09 | 55.91307 | 90.63622 | 26244 ft | 387 kts | 265° |
| 2026-05-04 13:09 | 55.90686 | 90.58521 | 26711 ft | 390 kts | 265° |
| 2026-05-04 13:09 | 55.90264 | 90.55077 | 26961 ft | 393 kts | 265° |
| 2026-05-04 13:10 | 55.89410 | 90.48113 | 27545 ft | 396 kts | 265° |
| 2026-05-04 13:10 | 55.88766 | 90.42910 | 27942 ft | 399 kts | 266° |
| 2026-05-04 13:10 | 55.88115 | 90.37663 | 28282 ft | 402 kts | 266° |
| 2026-05-04 13:10 | 55.87458 | 90.32371 | 28609 ft | 406 kts | 265° |
| 2026-05-04 13:11 | 55.86782 | 90.26942 | 28996 ft | 409 kts | 265° |
| 2026-05-04 13:11 | 55.86109 | 90.21574 | 29380 ft | 411 kts | 265° |
| 2026-05-04 13:11 | 55.85431 | 90.16187 | 29727 ft | 414 kts | 265° |
| 2026-05-04 13:11 | 55.84972 | 90.12558 | 30091 ft | 412 kts | 265° |
| 2026-05-04 13:12 | 55.84054 | 90.05339 | 30732 ft | 410 kts | 265° |
| 2026-05-04 13:12 | 55.83371 | 89.99994 | 31171 ft | 409 kts | 265° |
| 2026-05-04 13:12 | 55.82688 | 89.94658 | 31445 ft | 409 kts | 265° |
| 2026-05-04 13:12 | 55.81992 | 89.89217 | 31658 ft | 410 kts | 265° |
| 2026-05-04 13:13 | 55.81531 | 89.85633 | 31798 ft | 408 kts | 265° |
| 2026-05-04 13:13 | 55.80621 | 89.78575 | 32053 ft | 408 kts | 265° |
| 2026-05-04 13:13 | 55.79920 | 89.73146 | 32117 ft | 409 kts | 265° |
| 2026-05-04 13:14 | 55.78536 | 89.62528 | 32119 ft | 407 kts | 265° |
| 2026-05-04 13:14 | 55.77135 | 89.51847 | 32122 ft | 406 kts | 265° |
| 2026-05-04 13:15 | 55.75735 | 89.41241 | 32123 ft | 407 kts | 265° |
| 2026-05-04 13:15 | 55.74548 | 89.32313 | 32122 ft | 407 kts | 264° |
| 2026-05-04 13:16 | 55.73128 | 89.21693 | 32125 ft | 408 kts | 264° |
| 2026-05-04 13:16 | 55.71450 | 89.09263 | 32127 ft | 408 kts | 264° |
| 2026-05-04 13:17 | 55.69997 | 88.98564 | 32129 ft | 410 kts | 264° |
| 2026-05-04 13:17 | 55.68547 | 88.87927 | 32133 ft | 410 kts | 264° |
| 2026-05-04 13:18 | 55.67080 | 88.77222 | 32129 ft | 409 kts | 264° |
| 2026-05-04 13:18 | 55.65619 | 88.66612 | 32131 ft | 409 kts | 264° |
| 2026-05-04 13:19 | 55.64371 | 88.57626 | 32125 ft | 409 kts | 264° |
| 2026-05-04 13:19 | 55.62893 | 88.47051 | 32126 ft | 409 kts | 264° |
| 2026-05-04 13:20 | 55.61390 | 88.36364 | 32123 ft | 409 kts | 264° |
| 2026-05-04 13:20 | 55.59880 | 88.25696 | 32120 ft | 411 kts | 264° |
| 2026-05-04 13:21 | 55.58366 | 88.15083 | 32124 ft | 411 kts | 264° |
| 2026-05-04 13:21 | 55.56830 | 88.04387 | 32122 ft | 412 kts | 264° |
| 2026-05-04 13:22 | 55.55291 | 87.93753 | 32123 ft | 411 kts | 264° |
| 2026-05-04 13:22 | 55.53736 | 87.83086 | 32129 ft | 411 kts | 264° |
| 2026-05-04 13:23 | 55.52186 | 87.72508 | 32129 ft | 410 kts | 264° |
| 2026-05-04 13:23 | 55.50614 | 87.61849 | 32127 ft | 411 kts | 264° |
| 2026-05-04 13:24 | 55.49033 | 87.51214 | 32125 ft | 412 kts | 264° |
| 2026-05-04 13:24 | 55.47443 | 87.40632 | 32126 ft | 412 kts | 264° |
| 2026-05-04 13:25 | 55.45026 | 87.24707 | 32133 ft | 412 kts | 263° |
| 2026-05-04 13:25 | 55.43397 | 87.14064 | 32136 ft | 411 kts | 263° |
| 2026-05-04 13:26 | 55.41776 | 87.03531 | 32136 ft | 411 kts | 263° |
| 2026-05-04 13:26 | 55.40134 | 86.92914 | 32141 ft | 411 kts | 262° |
| 2026-05-04 13:27 | 55.38492 | 86.82388 | 32137 ft | 412 kts | 263° |
| 2026-05-04 13:27 | 55.36830 | 86.71793 | 32135 ft | 410 kts | 262° |
| 2026-05-04 13:28 | 55.35174 | 86.61297 | 32139 ft | 412 kts | 262° |
| 2026-05-04 13:28 | 55.33511 | 86.50839 | 32141 ft | 410 kts | 263° |
| 2026-05-04 13:29 | 55.32113 | 86.42078 | 32141 ft | 412 kts | 262° |
| 2026-05-04 13:29 | 55.30123 | 86.29689 | 32144 ft | 414 kts | 261° |
| 2026-05-04 13:30 | 55.28423 | 86.19187 | 32145 ft | 413 kts | 261° |
| 2026-05-04 13:30 | 55.26970 | 86.08614 | 32147 ft | 406 kts | 269° |
| 2026-05-04 13:31 | 55.26306 | 85.98020 | 32143 ft | 401 kts | 273° |
| 2026-05-04 13:31 | 55.25859 | 85.87537 | 32139 ft | 390 kts | 273° |
| 2026-05-04 13:32 | 55.25634 | 85.82490 | 32016 ft | 382 kts | 273° |
| 2026-05-04 13:32 | 55.25403 | 85.77392 | 31753 ft | 380 kts | 273° |
| 2026-05-04 13:32 | 55.25172 | 85.72407 | 31493 ft | 378 kts | 273° |
| 2026-05-04 13:32 | 55.24945 | 85.67693 | 31228 ft | 374 kts | 273° |
| 2026-05-04 13:33 | 55.24782 | 85.64407 | 30989 ft | 370 kts | 273° |
| 2026-05-04 13:33 | 55.24456 | 85.57914 | 30287 ft | 366 kts | 273° |
| 2026-05-04 13:33 | 55.24218 | 85.53223 | 29797 ft | 363 kts | 273° |
| 2026-05-04 13:33 | 55.23971 | 85.48408 | 29307 ft | 359 kts | 273° |
| 2026-05-04 13:34 | 55.23727 | 85.43704 | 28810 ft | 356 kts | 273° |
| 2026-05-04 13:34 | 55.23564 | 85.40576 | 28481 ft | 354 kts | 273° |
| 2026-05-04 13:34 | 55.23238 | 85.34373 | 27833 ft | 349 kts | 272° |
| 2026-05-04 13:34 | 55.22995 | 85.29806 | 27346 ft | 346 kts | 272° |
| 2026-05-04 13:35 | 55.22752 | 85.25281 | 26877 ft | 343 kts | 272° |
| 2026-05-04 13:35 | 55.22265 | 85.16286 | 25911 ft | 337 kts | 272° |
| 2026-05-04 13:35 | 55.22103 | 85.13320 | 25608 ft | 335 kts | 272° |
| 2026-05-04 13:36 | 55.21784 | 85.07503 | 24964 ft | 335 kts | 271° |
| 2026-05-04 13:36 | 55.21539 | 85.03014 | 24470 ft | 338 kts | 271° |
| 2026-05-04 13:36 | 55.21293 | 84.98583 | 24002 ft | 336 kts | 271° |
| 2026-05-04 13:36 | 55.21045 | 84.94192 | 23531 ft | 333 kts | 271° |
| 2026-05-04 13:37 | 55.20797 | 84.89848 | 23069 ft | 330 kts | 271° |
| 2026-05-04 13:37 | 55.20547 | 84.85481 | 22597 ft | 326 kts | 271° |
| 2026-05-04 13:37 | 55.20302 | 84.81210 | 22135 ft | 324 kts | 271° |
| 2026-05-04 13:37 | 55.20139 | 84.78365 | 21825 ft | 323 kts | 271° |
| 2026-05-04 13:38 | 55.19805 | 84.72691 | 21212 ft | 321 kts | 270° |
| 2026-05-04 13:38 | 55.19422 | 84.68507 | 20755 ft | 322 kts | 264° |
| 2026-05-04 13:38 | 55.18814 | 84.64394 | 20297 ft | 322 kts | 261° |
| 2026-05-04 13:38 | 55.18111 | 84.60337 | 19861 ft | 320 kts | 259° |
| 2026-05-04 13:39 | 55.17379 | 84.56265 | 19431 ft | 318 kts | 259° |
| 2026-05-04 13:39 | 55.16898 | 84.53587 | 19143 ft | 315 kts | 259° |
| 2026-05-04 13:39 | 55.15969 | 84.48347 | 18580 ft | 311 kts | 260° |
| 2026-05-04 13:39 | 55.15278 | 84.44418 | 18132 ft | 302 kts | 260° |
| 2026-05-04 13:40 | 55.14845 | 84.41958 | 17907 ft | 294 kts | 260° |
| 2026-05-04 13:40 | 55.13991 | 84.37058 | 17474 ft | 289 kts | 260° |
| 2026-05-04 13:40 | 55.13567 | 84.34597 | 17208 ft | 290 kts | 259° |
| 2026-05-04 13:40 | 55.12726 | 84.29752 | 16686 ft | 288 kts | 259° |
| 2026-05-04 13:41 | 55.12083 | 84.26083 | 16293 ft | 286 kts | 259° |
| 2026-05-04 13:41 | 55.11456 | 84.22506 | 15899 ft | 284 kts | 259° |
| 2026-05-04 13:41 | 55.10829 | 84.18943 | 15514 ft | 282 kts | 259° |
| 2026-05-04 13:42 | 55.09579 | 84.11853 | 14733 ft | 278 kts | 259° |
| 2026-05-04 13:42 | 55.08963 | 84.08370 | 14350 ft | 276 kts | 259° |
| 2026-05-04 13:42 | 55.08354 | 84.04906 | 13959 ft | 274 kts | 260° |
| 2026-05-04 13:42 | 55.07878 | 84.01370 | 13564 ft | 269 kts | 266° |
| 2026-05-04 13:43 | 55.07622 | 83.97890 | 13216 ft | 265 kts | 270° |
| 2026-05-04 13:43 | 55.07442 | 83.94434 | 12882 ft | 262 kts | 270° |
| 2026-05-04 13:43 | 55.07261 | 83.90974 | 12545 ft | 259 kts | 270° |
| 2026-05-04 13:43 | 55.07066 | 83.87624 | 12222 ft | 252 kts | 269° |
| 2026-05-04 13:44 | 55.06864 | 83.84328 | 11947 ft | 252 kts | 269° |
| 2026-05-04 13:44 | 55.06660 | 83.81029 | 11648 ft | 252 kts | 268° |
| 2026-05-04 13:44 | 55.06451 | 83.77684 | 11320 ft | 251 kts | 268° |
| 2026-05-04 13:44 | 55.06313 | 83.75481 | 11098 ft | 251 kts | 268° |
| 2026-05-04 13:45 | 55.06039 | 83.71133 | 10662 ft | 250 kts | 268° |
| 2026-05-04 13:45 | 55.05829 | 83.67815 | 10325 ft | 250 kts | 268° |
| 2026-05-04 13:45 | 55.05621 | 83.64558 | 9997 ft | 249 kts | 268° |
| 2026-05-04 13:45 | 55.05414 | 83.61317 | 9691 ft | 247 kts | 267° |
| 2026-05-04 13:46 | 55.05207 | 83.58099 | 9392 ft | 245 kts | 267° |
| 2026-05-04 13:46 | 55.04997 | 83.54854 | 9089 ft | 243 kts | 267° |
| 2026-05-04 13:46 | 55.04793 | 83.51689 | 8788 ft | 242 kts | 267° |
| 2026-05-04 13:46 | 55.04655 | 83.49569 | 8584 ft | 241 kts | 267° |
| 2026-05-04 13:47 | 55.04384 | 83.45407 | 8183 ft | 238 kts | 267° |
| 2026-05-04 13:47 | 55.04180 | 83.42304 | 7880 ft | 236 kts | 267° |
| 2026-05-04 13:47 | 55.03976 | 83.39183 | 7577 ft | 235 kts | 266° |
| 2026-05-04 13:47 | 55.03775 | 83.36134 | 7275 ft | 232 kts | 266° |
| 2026-05-04 13:48 | 55.03478 | 83.33139 | 6964 ft | 230 kts | 254° |
| 2026-05-04 13:48 | 55.02638 | 83.30533 | 6662 ft | 228 kts | 234° |
| 2026-05-04 13:48 | 55.01509 | 83.28210 | 6362 ft | 227 kts | 233° |
| 2026-05-04 13:48 | 55.00442 | 83.25930 | 6069 ft | 219 kts | 235° |
| 2026-05-04 13:49 | 54.99450 | 83.23686 | 5758 ft | 211 kts | 236° |
| 2026-05-04 13:49 | 54.98490 | 83.21474 | 5447 ft | 205 kts | 236° |
| 2026-05-04 13:49 | 54.97562 | 83.19338 | 5153 ft | 202 kts | 236° |
| 2026-05-04 13:49 | 54.96957 | 83.17954 | 5019 ft | 192 kts | 236° |
| 2026-05-04 13:50 | 54.95837 | 83.15398 | 5012 ft | 182 kts | 236° |
| 2026-05-04 13:50 | 54.94995 | 83.13465 | 5011 ft | 181 kts | 236° |
| 2026-05-04 13:50 | 54.94168 | 83.11573 | 5013 ft | 181 kts | 237° |
| 2026-05-04 13:50 | 54.93536 | 83.09539 | 4908 ft | 172 kts | 261° |
| 2026-05-04 13:51 | 54.93651 | 83.07344 | 4527 ft | 171 kts | 293° |
| 2026-05-04 13:51 | 54.94061 | 83.06026 | 4304 ft | 171 kts | 304° |
| 2026-05-04 13:51 | 54.95190 | 83.03729 | 3829 ft | 173 kts | 312° |
| 2026-05-04 13:51 | 54.96069 | 83.02045 | 3483 ft | 174 kts | 311° |
| 2026-05-04 13:52 | 54.97820 | 82.98607 | 2988 ft | 171 kts | 311° |
| 2026-05-04 13:52 | 54.98701 | 82.96905 | 3010 ft | 175 kts | 311° |
| 2026-05-04 13:52 | 54.99593 | 82.95197 | 3014 ft | 176 kts | 311° |
| 2026-05-04 13:53 | 55.00497 | 82.93466 | 2969 ft | 172 kts | 311° |
| 2026-05-04 13:53 | 55.01366 | 82.91803 | 2675 ft | 172 kts | 311° |
| 2026-05-04 13:53 | 55.02243 | 82.90122 | 2344 ft | 173 kts | 311° |
| 2026-05-04 13:54 | 55.03414 | 82.86266 | 2004 ft | 172 kts | 256° |
| 2026-05-04 13:54 | 55.02904 | 82.84217 | 1911 ft | 168 kts | 250° |
| 2026-05-04 13:54 | 55.02618 | 82.79771 | 1611 ft | 173 kts | 259° |
| 2026-05-04 13:55 | 55.02431 | 82.78278 | 1618 ft | 170 kts | 259° |
| 2026-05-04 13:55 | 55.01993 | 82.73329 | 1008 ft | 155 kts | 261° |
| 2026-05-04 13:55 | 55.01804 | 82.71320 | 789 ft | 154 kts | 262° |
| 2026-05-04 13:56 | 55.01631 | 82.69315 | 555 ft | 154 kts | 262° |
| 2026-05-04 13:56 | 55.01450 | 82.67342 | 381 ft | 150 kts | 263° |
| 2026-05-04 13:56 | 55.01191 | 82.64463 | 352 ft | 45 kts | 262° |
| 2026-05-04 13:57 | 55.01166 | 82.64164 | 352 ft | 8 kts | 261° |
| 2026-05-04 13:57 | 55.01152 | 82.64050 | 350 ft | 9 kts | 251° |
| 2026-05-04 13:58 | 55.01087 | 82.63991 | 351 ft | 4 kts | 175° |
| 2026-05-04 13:58 | 55.01078 | 82.63992 | 351 ft | 0 kts | 173° |
| 2026-05-04 14:00 | 55.01075 | 82.63993 | 351 ft | 0 kts | 173° |
| 2026-05-04 14:00 | 55.01061 | 82.63997 | 351 ft | 2 kts | 172° |
| 2026-05-04 14:01 | 55.01046 | 82.64001 | 352 ft | 3 kts | 172° |
| 2026-05-04 14:01 | 55.01015 | 82.64014 | 352 ft | 5 kts | 151° |
| 2026-05-04 14:01 | 55.00970 | 82.64240 | 352 ft | 12 kts | 103° |
| 2026-05-04 14:02 | 55.00956 | 82.64344 | 352 ft | 11 kts | 104° |
| 2026-05-04 14:02 | 55.00929 | 82.64553 | 352 ft | 14 kts | 102° |
| 2026-05-04 14:02 | 55.00905 | 82.64737 | 352 ft | 14 kts | 103° |
| 2026-05-04 14:02 | 55.00883 | 82.64906 | 353 ft | 10 kts | 103° |
| 2026-05-04 14:03 | 55.00871 | 82.65031 | 352 ft | 9 kts | 89° |
| 2026-05-04 14:03 | 55.00880 | 82.65148 | 353 ft | 8 kts | 82° |
| 2026-05-04 14:03 | 55.00883 | 82.65268 | 353 ft | 10 kts | 88° |
| 2026-05-04 14:03 | 55.00891 | 82.65376 | 355 ft | 8 kts | 80° |
| 2026-05-04 14:04 | 55.00915 | 82.65623 | 356 ft | 8 kts | 80° |
| 2026-05-04 14:04 | 55.00926 | 82.65743 | 356 ft | 10 kts | 82° |
| 2026-05-04 14:04 | 55.00936 | 82.65870 | 357 ft | 8 kts | 82° |
| 2026-05-04 14:05 | 55.00962 | 82.66112 | 356 ft | 10 kts | 72° |
| 2026-05-04 14:05 | 55.00991 | 82.66238 | 356 ft | 10 kts | 66° |
| 2026-05-04 14:05 | 55.01017 | 82.66339 | 356 ft | 6 kts | 69° |
| 2026-05-04 14:06 | 55.01030 | 82.66410 | 356 ft | 5 kts | 83° |
| 2026-05-04 14:06 | 55.01011 | 82.66459 | 356 ft | 4 kts | 152° |
| 2026-05-04 14:06 | 55.00982 | 82.66474 | 356 ft | 3 kts | 168° |
| 2026-05-04 14:06 | 55.00961 | 82.66482 | 356 ft | 2 kts | 169° |
| 2026-05-04 14:07 | 55.00949 | 82.66486 | 356 ft | 0 kts | 171° |
| 2026-05-04 14:07 | 55.00947 | 82.66486 | 356 ft | 0 kts | 171° |